sensor_id;sensor_type;location;lat;lon;timestamp;P1;durP1;ratioP1;P2;durP2;ratioP2
12320;SDS011;6225;52.720;8.276;2023-08-20T00:01:53;5.65;;;4.65;;
12320;SDS011;6225;52.720;8.276;2023-08-20T00:04:41;9.20;;;4.65;;
12320;SDS011;6225;52.720;8.276;2023-08-20T00:07:29;8.32;;;4.55;;
12320;SDS011;6225;52.720;8.276;2023-08-20T00:10:16;6.68;;;4.40;;
12320;SDS011;6225;52.720;8.276;2023-08-20T00:13:01;7.55;;;4.70;;
12320;SDS011;6225;52.720;8.276;2023-08-20T00:15:46;7.53;;;4.93;;
12320;SDS011;6225;52.720;8.276;2023-08-20T00:18:30;7.05;;;4.93;;
12320;SDS011;6225;52.720;8.276;2023-08-20T00:21:15;7.90;;;4.95;;
12320;SDS011;6225;52.720;8.276;2023-08-20T00:23:59;10.38;;;5.35;;
12320;SDS011;6225;52.720;8.276;2023-08-20T00:26:44;8.23;;;5.13;;
12320;SDS011;6225;52.720;8.276;2023-08-20T00:29:29;5.32;;;4.75;;
12320;SDS011;6225;52.720;8.276;2023-08-20T00:32:14;8.68;;;5.18;;
12320;SDS011;6225;52.720;8.276;2023-08-20T00:34:58;9.02;;;4.43;;
12320;SDS011;6225;52.720;8.276;2023-08-20T00:37:42;12.02;;;5.30;;
12320;SDS011;6225;52.720;8.276;2023-08-20T00:40:28;6.68;;;5.00;;
12320;SDS011;6225;52.720;8.276;2023-08-20T00:43:14;9.32;;;5.03;;
12320;SDS011;6225;52.720;8.276;2023-08-20T00:45:58;6.85;;;4.75;;
12320;SDS011;6225;52.720;8.276;2023-08-20T00:48:43;8.48;;;5.45;;
12320;SDS011;6225;52.720;8.276;2023-08-20T00:51:28;6.45;;;5.13;;
12320;SDS011;6225;52.720;8.276;2023-08-20T00:54:12;7.05;;;5.13;;
12320;SDS011;6225;52.720;8.276;2023-08-20T00:56:57;7.47;;;4.68;;
12320;SDS011;6225;52.720;8.276;2023-08-20T00:59:43;8.30;;;5.10;;
12320;SDS011;6225;52.720;8.276;2023-08-20T01:02:30;6.95;;;5.18;;
12320;SDS011;6225;52.720;8.276;2023-08-20T01:05:14;6.22;;;4.95;;
12320;SDS011;6225;52.720;8.276;2023-08-20T01:08:06;6.50;;;4.60;;
12320;SDS011;6225;52.720;8.276;2023-08-20T01:11:26;8.95;;;4.80;;
12320;SDS011;6225;52.720;8.276;2023-08-20T01:14:14;7.32;;;4.80;;
12320;SDS011;6225;52.720;8.276;2023-08-20T01:16:59;8.35;;;5.40;;
12320;SDS011;6225;52.720;8.276;2023-08-20T01:19:43;8.77;;;5.88;;
12320;SDS011;6225;52.720;8.276;2023-08-20T01:25:44;12.05;;;5.38;;
12320;SDS011;6225;52.720;8.276;2023-08-20T01:28:59;8.05;;;5.82;;
12320;SDS011;6225;52.720;8.276;2023-08-20T01:31:44;11.57;;;6.32;;
12320;SDS011;6225;52.720;8.276;2023-08-20T01:34:29;10.52;;;5.97;;
12320;SDS011;6225;52.720;8.276;2023-08-20T01:37:13;9.02;;;6.45;;
12320;SDS011;6225;52.720;8.276;2023-08-20T01:39:57;11.10;;;6.70;;
12320;SDS011;6225;52.720;8.276;2023-08-20T01:42:42;10.63;;;6.22;;
12320;SDS011;6225;52.720;8.276;2023-08-20T01:45:26;10.13;;;6.80;;
12320;SDS011;6225;52.720;8.276;2023-08-20T01:48:11;11.88;;;7.35;;
12320;SDS011;6225;52.720;8.276;2023-08-20T01:50:55;11.23;;;7.00;;
12320;SDS011;6225;52.720;8.276;2023-08-20T01:53:40;12.98;;;7.15;;
12320;SDS011;6225;52.720;8.276;2023-08-20T01:56:24;9.80;;;7.30;;
12320;SDS011;6225;52.720;8.276;2023-08-20T01:59:08;13.13;;;6.72;;
12320;SDS011;6225;52.720;8.276;2023-08-20T02:01:52;12.10;;;8.03;;
12320;SDS011;6225;52.720;8.276;2023-08-20T02:04:36;14.35;;;7.40;;
12320;SDS011;6225;52.720;8.276;2023-08-20T02:07:20;13.07;;;8.93;;
12320;SDS011;6225;52.720;8.276;2023-08-20T02:10:04;9.23;;;7.28;;
12320;SDS011;6225;52.720;8.276;2023-08-20T02:12:49;9.43;;;7.45;;
12320;SDS011;6225;52.720;8.276;2023-08-20T02:15:33;12.13;;;6.93;;
12320;SDS011;6225;52.720;8.276;2023-08-20T02:18:17;9.18;;;7.22;;
12320;SDS011;6225;52.720;8.276;2023-08-20T02:21:01;8.60;;;7.50;;
12320;SDS011;6225;52.720;8.276;2023-08-20T02:23:46;11.02;;;7.38;;
12320;SDS011;6225;52.720;8.276;2023-08-20T02:26:30;12.90;;;7.15;;
12320;SDS011;6225;52.720;8.276;2023-08-20T02:29:14;11.93;;;7.30;;
12320;SDS011;6225;52.720;8.276;2023-08-20T02:31:58;12.13;;;7.87;;
12320;SDS011;6225;52.720;8.276;2023-08-20T02:34:43;11.37;;;7.17;;
12320;SDS011;6225;52.720;8.276;2023-08-20T02:37:27;13.82;;;7.78;;
12320;SDS011;6225;52.720;8.276;2023-08-20T02:40:11;12.45;;;8.23;;
12320;SDS011;6225;52.720;8.276;2023-08-20T02:42:58;10.57;;;8.35;;
12320;SDS011;6225;52.720;8.276;2023-08-20T02:45:42;14.13;;;7.68;;
12320;SDS011;6225;52.720;8.276;2023-08-20T02:48:27;10.15;;;7.07;;
12320;SDS011;6225;52.720;8.276;2023-08-20T02:51:12;10.07;;;7.00;;
12320;SDS011;6225;52.720;8.276;2023-08-20T02:53:57;10.90;;;7.57;;
12320;SDS011;6225;52.720;8.276;2023-08-20T02:56:41;10.68;;;7.45;;
12320;SDS011;6225;52.720;8.276;2023-08-20T02:59:26;12.60;;;7.35;;
12320;SDS011;6225;52.720;8.276;2023-08-20T03:02:10;11.30;;;6.88;;
12320;SDS011;6225;52.720;8.276;2023-08-20T03:04:55;11.65;;;7.03;;
12320;SDS011;6225;52.720;8.276;2023-08-20T03:07:39;11.17;;;7.37;;
12320;SDS011;6225;52.720;8.276;2023-08-20T03:10:24;11.93;;;7.87;;
12320;SDS011;6225;52.720;8.276;2023-08-20T03:13:08;10.93;;;7.73;;
12320;SDS011;6225;52.720;8.276;2023-08-20T03:15:52;12.45;;;7.32;;
12320;SDS011;6225;52.720;8.276;2023-08-20T03:18:36;9.23;;;6.93;;
12320;SDS011;6225;52.720;8.276;2023-08-20T03:21:20;12.30;;;7.75;;
12320;SDS011;6225;52.720;8.276;2023-08-20T03:24:04;11.85;;;7.13;;
12320;SDS011;6225;52.720;8.276;2023-08-20T03:26:49;10.63;;;6.97;;
12320;SDS011;6225;52.720;8.276;2023-08-20T03:29:34;10.73;;;6.88;;
12320;SDS011;6225;52.720;8.276;2023-08-20T03:32:18;13.82;;;7.38;;
12320;SDS011;6225;52.720;8.276;2023-08-20T03:35:02;13.77;;;7.07;;
12320;SDS011;6225;52.720;8.276;2023-08-20T03:37:47;9.23;;;7.27;;
12320;SDS011;6225;52.720;8.276;2023-08-20T03:40:31;12.47;;;7.60;;
12320;SDS011;6225;52.720;8.276;2023-08-20T03:43:15;8.68;;;7.20;;
12320;SDS011;6225;52.720;8.276;2023-08-20T03:45:59;9.00;;;6.80;;
12320;SDS011;6225;52.720;8.276;2023-08-20T03:48:44;10.70;;;6.78;;
12320;SDS011;6225;52.720;8.276;2023-08-20T03:51:28;8.32;;;6.05;;
12320;SDS011;6225;52.720;8.276;2023-08-20T03:54:12;13.20;;;6.93;;
12320;SDS011;6225;52.720;8.276;2023-08-20T03:56:57;11.32;;;6.80;;
12320;SDS011;6225;52.720;8.276;2023-08-20T03:59:41;9.13;;;6.53;;
12320;SDS011;6225;52.720;8.276;2023-08-20T04:02:26;9.13;;;7.07;;
12320;SDS011;6225;52.720;8.276;2023-08-20T04:05:10;9.70;;;6.73;;
12320;SDS011;6225;52.720;8.276;2023-08-20T04:07:54;9.90;;;7.13;;
12320;SDS011;6225;52.720;8.276;2023-08-20T04:10:44;10.00;;;6.87;;
12320;SDS011;6225;52.720;8.276;2023-08-20T04:13:29;12.53;;;7.73;;
12320;SDS011;6225;52.720;8.276;2023-08-20T04:16:14;11.35;;;7.05;;
12320;SDS011;6225;52.720;8.276;2023-08-20T04:18:58;8.90;;;7.33;;
12320;SDS011;6225;52.720;8.276;2023-08-20T04:21:43;10.53;;;7.20;;
12320;SDS011;6225;52.720;8.276;2023-08-20T04:24:27;11.90;;;7.40;;
12320;SDS011;6225;52.720;8.276;2023-08-20T04:27:12;12.37;;;7.40;;
12320;SDS011;6225;52.720;8.276;2023-08-20T04:29:56;13.77;;;7.13;;
12320;SDS011;6225;52.720;8.276;2023-08-20T04:32:40;12.97;;;7.33;;
12320;SDS011;6225;52.720;8.276;2023-08-20T04:35:24;15.53;;;7.70;;
12320;SDS011;6225;52.720;8.276;2023-08-20T04:38:08;11.87;;;7.77;;
12320;SDS011;6225;52.720;8.276;2023-08-20T04:40:52;12.10;;;7.90;;
12320;SDS011;6225;52.720;8.276;2023-08-20T04:43:36;13.68;;;8.82;;
12320;SDS011;6225;52.720;8.276;2023-08-20T04:46:21;10.73;;;6.83;;
12320;SDS011;6225;52.720;8.276;2023-08-20T04:49:05;12.30;;;7.60;;
12320;SDS011;6225;52.720;8.276;2023-08-20T04:51:49;13.30;;;8.65;;
12320;SDS011;6225;52.720;8.276;2023-08-20T04:54:33;15.07;;;7.03;;
12320;SDS011;6225;52.720;8.276;2023-08-20T04:57:18;12.63;;;7.40;;
12320;SDS011;6225;52.720;8.276;2023-08-20T05:00:02;16.63;;;8.07;;
12320;SDS011;6225;52.720;8.276;2023-08-20T05:02:47;15.68;;;9.80;;
12320;SDS011;6225;52.720;8.276;2023-08-20T05:05:31;17.40;;;11.10;;
12320;SDS011;6225;52.720;8.276;2023-08-20T05:08:16;15.15;;;9.18;;
12320;SDS011;6225;52.720;8.276;2023-08-20T05:11:00;13.13;;;8.80;;
12320;SDS011;6225;52.720;8.276;2023-08-20T05:13:47;15.63;;;8.32;;
12320;SDS011;6225;52.720;8.276;2023-08-20T05:16:32;12.30;;;7.95;;
12320;SDS011;6225;52.720;8.276;2023-08-20T05:19:17;16.85;;;11.13;;
12320;SDS011;6225;52.720;8.276;2023-08-20T05:22:02;17.83;;;9.75;;
12320;SDS011;6225;52.720;8.276;2023-08-20T05:24:46;15.50;;;9.07;;
12320;SDS011;6225;52.720;8.276;2023-08-20T05:27:30;16.70;;;10.27;;
12320;SDS011;6225;52.720;8.276;2023-08-20T05:30:14;13.52;;;10.73;;
12320;SDS011;6225;52.720;8.276;2023-08-20T05:32:58;16.13;;;10.38;;
12320;SDS011;6225;52.720;8.276;2023-08-20T05:35:43;15.63;;;9.10;;
12320;SDS011;6225;52.720;8.276;2023-08-20T05:38:28;19.50;;;9.07;;
12320;SDS011;6225;52.720;8.276;2023-08-20T05:41:12;13.57;;;9.25;;
12320;SDS011;6225;52.720;8.276;2023-08-20T05:43:56;15.75;;;9.65;;
12320;SDS011;6225;52.720;8.276;2023-08-20T05:46:40;12.43;;;9.68;;
12320;SDS011;6225;52.720;8.276;2023-08-20T05:49:24;18.67;;;9.68;;
12320;SDS011;6225;52.720;8.276;2023-08-20T05:52:08;15.25;;;10.38;;
12320;SDS011;6225;52.720;8.276;2023-08-20T05:54:53;16.65;;;10.27;;
12320;SDS011;6225;52.720;8.276;2023-08-20T05:57:37;15.02;;;10.10;;
12320;SDS011;6225;52.720;8.276;2023-08-20T06:00:21;16.42;;;9.85;;
12320;SDS011;6225;52.720;8.276;2023-08-20T06:03:05;14.20;;;10.10;;
12320;SDS011;6225;52.720;8.276;2023-08-20T06:05:50;15.65;;;10.10;;
12320;SDS011;6225;52.720;8.276;2023-08-20T06:08:34;13.65;;;10.23;;
12320;SDS011;6225;52.720;8.276;2023-08-20T06:11:19;15.07;;;10.13;;
12320;SDS011;6225;52.720;8.276;2023-08-20T06:14:03;17.10;;;9.88;;
12320;SDS011;6225;52.720;8.276;2023-08-20T06:16:47;18.50;;;11.75;;
12320;SDS011;6225;52.720;8.276;2023-08-20T06:19:31;14.57;;;10.45;;
12320;SDS011;6225;52.720;8.276;2023-08-20T06:22:15;15.32;;;9.35;;
12320;SDS011;6225;52.720;8.276;2023-08-20T06:24:59;12.70;;;9.00;;
12320;SDS011;6225;52.720;8.276;2023-08-20T06:27:43;16.77;;;9.55;;
12320;SDS011;6225;52.720;8.276;2023-08-20T06:30:28;16.30;;;9.95;;
12320;SDS011;6225;52.720;8.276;2023-08-20T06:33:13;15.80;;;8.65;;
12320;SDS011;6225;52.720;8.276;2023-08-20T06:35:57;12.63;;;8.38;;
12320;SDS011;6225;52.720;8.276;2023-08-20T06:38:42;18.70;;;9.52;;
12320;SDS011;6225;52.720;8.276;2023-08-20T06:41:26;15.93;;;8.60;;
12320;SDS011;6225;52.720;8.276;2023-08-20T06:44:10;16.60;;;8.35;;
12320;SDS011;6225;52.720;8.276;2023-08-20T06:46:54;12.35;;;7.75;;
12320;SDS011;6225;52.720;8.276;2023-08-20T06:49:38;12.05;;;7.15;;
12320;SDS011;6225;52.720;8.276;2023-08-20T06:52:23;14.85;;;6.70;;
12320;SDS011;6225;52.720;8.276;2023-08-20T06:55:07;12.25;;;5.80;;
12320;SDS011;6225;52.720;8.276;2023-08-20T06:57:51;14.23;;;6.00;;
12320;SDS011;6225;52.720;8.276;2023-08-20T07:00:35;15.93;;;5.40;;
12320;SDS011;6225;52.720;8.276;2023-08-20T07:03:19;11.05;;;5.00;;
12320;SDS011;6225;52.720;8.276;2023-08-20T07:06:03;11.10;;;5.78;;
12320;SDS011;6225;52.720;8.276;2023-08-20T07:08:48;10.48;;;5.95;;
12320;SDS011;6225;52.720;8.276;2023-08-20T07:11:32;12.15;;;6.10;;
12320;SDS011;6225;52.720;8.276;2023-08-20T07:14:16;12.40;;;6.50;;
12320;SDS011;6225;52.720;8.276;2023-08-20T07:17:00;14.30;;;6.40;;
12320;SDS011;6225;52.720;8.276;2023-08-20T07:19:46;10.48;;;5.75;;
12320;SDS011;6225;52.720;8.276;2023-08-20T07:22:30;9.73;;;5.68;;
12320;SDS011;6225;52.720;8.276;2023-08-20T07:25:14;12.05;;;5.68;;
12320;SDS011;6225;52.720;8.276;2023-08-20T07:27:58;23.08;;;6.25;;
12320;SDS011;6225;52.720;8.276;2023-08-20T07:30:43;12.73;;;6.40;;
12320;SDS011;6225;52.720;8.276;2023-08-20T07:33:27;11.90;;;7.13;;
12320;SDS011;6225;52.720;8.276;2023-08-20T07:36:11;9.85;;;6.70;;
12320;SDS011;6225;52.720;8.276;2023-08-20T07:38:55;13.18;;;7.18;;
12320;SDS011;6225;52.720;8.276;2023-08-20T07:41:40;10.65;;;6.97;;
12320;SDS011;6225;52.720;8.276;2023-08-20T07:44:24;13.00;;;6.97;;
12320;SDS011;6225;52.720;8.276;2023-08-20T07:47:08;12.88;;;6.40;;
12320;SDS011;6225;52.720;8.276;2023-08-20T07:49:52;12.05;;;6.20;;
12320;SDS011;6225;52.720;8.276;2023-08-20T07:52:36;11.55;;;6.45;;
12320;SDS011;6225;52.720;8.276;2023-08-20T07:55:20;12.13;;;5.80;;
12320;SDS011;6225;52.720;8.276;2023-08-20T07:58:04;9.73;;;5.40;;
12320;SDS011;6225;52.720;8.276;2023-08-20T08:00:48;9.68;;;6.25;;
12320;SDS011;6225;52.720;8.276;2023-08-20T08:03:32;9.40;;;6.38;;
12320;SDS011;6225;52.720;8.276;2023-08-20T08:06:16;10.70;;;6.45;;
12320;SDS011;6225;52.720;8.276;2023-08-20T08:12:25;11.05;;;7.38;;
12320;SDS011;6225;52.720;8.276;2023-08-20T08:15:09;10.70;;;7.90;;
12320;SDS011;6225;52.720;8.276;2023-08-20T08:17:53;15.05;;;7.28;;
12320;SDS011;6225;52.720;8.276;2023-08-20T08:20:37;10.90;;;7.40;;
12320;SDS011;6225;52.720;8.276;2023-08-20T08:23:21;12.02;;;7.20;;
12320;SDS011;6225;52.720;8.276;2023-08-20T08:26:05;10.88;;;7.57;;
12320;SDS011;6225;52.720;8.276;2023-08-20T08:28:49;13.43;;;7.70;;
12320;SDS011;6225;52.720;8.276;2023-08-20T08:31:33;13.88;;;7.40;;
12320;SDS011;6225;52.720;8.276;2023-08-20T08:34:18;12.80;;;8.05;;
12320;SDS011;6225;52.720;8.276;2023-08-20T08:37:02;14.05;;;8.35;;
12320;SDS011;6225;52.720;8.276;2023-08-20T08:39:46;12.45;;;7.72;;
12320;SDS011;6225;52.720;8.276;2023-08-20T08:42:30;14.60;;;7.97;;
12320;SDS011;6225;52.720;8.276;2023-08-20T08:45:17;12.13;;;8.25;;
12320;SDS011;6225;52.720;8.276;2023-08-20T08:48:03;11.60;;;6.60;;
12320;SDS011;6225;52.720;8.276;2023-08-20T08:50:48;12.05;;;7.30;;
12320;SDS011;6225;52.720;8.276;2023-08-20T08:53:33;12.18;;;6.13;;
12320;SDS011;6225;52.720;8.276;2023-08-20T08:56:19;10.27;;;6.40;;
12320;SDS011;6225;52.720;8.276;2023-08-20T08:59:04;8.15;;;6.00;;
12320;SDS011;6225;52.720;8.276;2023-08-20T09:01:48;10.98;;;5.85;;
12320;SDS011;6225;52.720;8.276;2023-08-20T09:04:32;8.15;;;6.28;;
12320;SDS011;6225;52.720;8.276;2023-08-20T09:07:17;12.70;;;6.50;;
12320;SDS011;6225;52.720;8.276;2023-08-20T09:10:00;8.98;;;6.20;;
12320;SDS011;6225;52.720;8.276;2023-08-20T09:12:45;10.82;;;6.72;;
12320;SDS011;6225;52.720;8.276;2023-08-20T09:15:31;12.10;;;6.57;;
12320;SDS011;6225;52.720;8.276;2023-08-20T09:18:17;8.90;;;5.90;;
12320;SDS011;6225;52.720;8.276;2023-08-20T09:21:01;9.68;;;5.72;;
12320;SDS011;6225;52.720;8.276;2023-08-20T09:23:45;11.13;;;6.03;;
12320;SDS011;6225;52.720;8.276;2023-08-20T09:26:30;13.63;;;5.80;;
12320;SDS011;6225;52.720;8.276;2023-08-20T09:29:14;8.30;;;5.95;;
12320;SDS011;6225;52.720;8.276;2023-08-20T09:32:02;9.02;;;5.75;;
12320;SDS011;6225;52.720;8.276;2023-08-20T09:34:50;10.73;;;6.00;;
12320;SDS011;6225;52.720;8.276;2023-08-20T09:37:35;8.77;;;5.70;;
12320;SDS011;6225;52.720;8.276;2023-08-20T09:40:20;11.00;;;5.47;;
12320;SDS011;6225;52.720;8.276;2023-08-20T09:43:04;10.82;;;5.60;;
12320;SDS011;6225;52.720;8.276;2023-08-20T09:45:51;10.27;;;4.95;;
12320;SDS011;6225;52.720;8.276;2023-08-20T09:48:38;7.55;;;5.68;;
12320;SDS011;6225;52.720;8.276;2023-08-20T09:51:25;9.02;;;5.47;;
12320;SDS011;6225;52.720;8.276;2023-08-20T09:54:21;11.57;;;5.20;;
12320;SDS011;6225;52.720;8.276;2023-08-20T09:57:23;8.57;;;4.93;;
12320;SDS011;6225;52.720;8.276;2023-08-20T10:00:14;8.38;;;5.07;;
12320;SDS011;6225;52.720;8.276;2023-08-20T10:02:58;5.72;;;4.68;;
12320;SDS011;6225;52.720;8.276;2023-08-20T10:05:43;8.77;;;4.50;;
12320;SDS011;6225;52.720;8.276;2023-08-20T10:08:30;7.13;;;4.07;;
12320;SDS011;6225;52.720;8.276;2023-08-20T10:11:14;6.32;;;3.72;;
12320;SDS011;6225;52.720;8.276;2023-08-20T10:13:59;8.90;;;4.35;;
12320;SDS011;6225;52.720;8.276;2023-08-20T10:16:43;6.82;;;4.13;;
12320;SDS011;6225;52.720;8.276;2023-08-20T10:19:27;8.10;;;4.47;;
12320;SDS011;6225;52.720;8.276;2023-08-20T10:22:11;9.70;;;3.42;;
12320;SDS011;6225;52.720;8.276;2023-08-20T10:24:55;9.23;;;3.75;;
12320;SDS011;6225;52.720;8.276;2023-08-20T10:27:41;5.90;;;3.70;;
12320;SDS011;6225;52.720;8.276;2023-08-20T10:30:28;8.15;;;3.85;;
12320;SDS011;6225;52.720;8.276;2023-08-20T10:33:12;6.88;;;3.78;;
12320;SDS011;6225;52.720;8.276;2023-08-20T10:35:58;7.25;;;3.58;;
12320;SDS011;6225;52.720;8.276;2023-08-20T10:38:51;7.85;;;3.78;;
12320;SDS011;6225;52.720;8.276;2023-08-20T10:41:39;7.88;;;3.83;;
12320;SDS011;6225;52.720;8.276;2023-08-20T10:44:23;6.90;;;3.90;;
12320;SDS011;6225;52.720;8.276;2023-08-20T10:47:08;7.32;;;3.65;;
12320;SDS011;6225;52.720;8.276;2023-08-20T10:49:55;9.32;;;4.15;;
12320;SDS011;6225;52.720;8.276;2023-08-20T10:52:39;6.95;;;3.58;;
12320;SDS011;6225;52.720;8.276;2023-08-20T10:55:24;9.75;;;3.65;;
12320;SDS011;6225;52.720;8.276;2023-08-20T10:58:08;7.88;;;3.58;;
12320;SDS011;6225;52.720;8.276;2023-08-20T11:03:57;8.07;;;3.72;;
12320;SDS011;6225;52.720;8.276;2023-08-20T11:06:44;7.05;;;3.90;;
12320;SDS011;6225;52.720;8.276;2023-08-20T11:09:29;5.90;;;3.80;;
12320;SDS011;6225;52.720;8.276;2023-08-20T11:12:14;8.88;;;3.95;;
12320;SDS011;6225;52.720;8.276;2023-08-20T11:15:00;8.50;;;4.20;;
12320;SDS011;6225;52.720;8.276;2023-08-20T11:17:45;8.98;;;3.80;;
12320;SDS011;6225;52.720;8.276;2023-08-20T11:20:31;7.65;;;3.40;;
12320;SDS011;6225;52.720;8.276;2023-08-20T11:23:15;4.43;;;3.20;;
12320;SDS011;6225;52.720;8.276;2023-08-20T11:26:01;6.10;;;3.85;;
12320;SDS011;6225;52.720;8.276;2023-08-20T11:28:46;5.30;;;3.83;;
12320;SDS011;6225;52.720;8.276;2023-08-20T11:31:30;5.70;;;3.38;;
12320;SDS011;6225;52.720;8.276;2023-08-20T11:34:14;6.07;;;2.90;;
12320;SDS011;6225;52.720;8.276;2023-08-20T11:36:59;8.98;;;2.78;;
12320;SDS011;6225;52.720;8.276;2023-08-20T11:39:43;7.10;;;3.30;;
12320;SDS011;6225;52.720;8.276;2023-08-20T11:42:27;8.40;;;3.78;;
12320;SDS011;6225;52.720;8.276;2023-08-20T11:45:11;8.77;;;3.20;;
12320;SDS011;6225;52.720;8.276;2023-08-20T11:47:56;4.72;;;2.97;;
12320;SDS011;6225;52.720;8.276;2023-08-20T11:50:41;5.03;;;2.88;;
12320;SDS011;6225;52.720;8.276;2023-08-20T11:53:26;6.70;;;2.95;;
12320;SDS011;6225;52.720;8.276;2023-08-20T11:56:13;8.48;;;2.97;;
12320;SDS011;6225;52.720;8.276;2023-08-20T11:59:01;6.32;;;3.05;;
12320;SDS011;6225;52.720;8.276;2023-08-20T12:01:50;4.50;;;2.80;;
12320;SDS011;6225;52.720;8.276;2023-08-20T12:04:44;7.78;;;3.10;;
12320;SDS011;6225;52.720;8.276;2023-08-20T12:07:34;10.50;;;3.25;;
12320;SDS011;6225;52.720;8.276;2023-08-20T12:10:21;6.80;;;2.70;;
12320;SDS011;6225;52.720;8.276;2023-08-20T12:13:06;4.65;;;2.55;;
12320;SDS011;6225;52.720;8.276;2023-08-20T12:15:52;5.60;;;2.60;;
12320;SDS011;6225;52.720;8.276;2023-08-20T12:18:36;4.28;;;2.55;;
12320;SDS011;6225;52.720;8.276;2023-08-20T12:21:20;6.55;;;2.88;;
12320;SDS011;6225;52.720;8.276;2023-08-20T12:24:04;4.90;;;3.00;;
12320;SDS011;6225;52.720;8.276;2023-08-20T12:26:49;6.07;;;2.80;;
12320;SDS011;6225;52.720;8.276;2023-08-20T12:29:33;5.25;;;2.95;;
12320;SDS011;6225;52.720;8.276;2023-08-20T12:32:17;5.15;;;2.95;;
12320;SDS011;6225;52.720;8.276;2023-08-20T12:35:01;8.00;;;3.47;;
12320;SDS011;6225;52.720;8.276;2023-08-20T12:37:46;5.38;;;2.80;;
12320;SDS011;6225;52.720;8.276;2023-08-20T12:40:30;3.55;;;2.22;;
12320;SDS011;6225;52.720;8.276;2023-08-20T12:43:14;4.80;;;2.42;;
12320;SDS011;6225;52.720;8.276;2023-08-20T12:45:58;4.82;;;2.25;;
12320;SDS011;6225;52.720;8.276;2023-08-20T12:48:43;6.80;;;2.70;;
12320;SDS011;6225;52.720;8.276;2023-08-20T12:51:27;5.60;;;2.85;;
12320;SDS011;6225;52.720;8.276;2023-08-20T12:54:11;5.88;;;2.67;;
12320;SDS011;6225;52.720;8.276;2023-08-20T12:56:55;6.60;;;3.05;;
12320;SDS011;6225;52.720;8.276;2023-08-20T12:59:40;6.55;;;2.90;;
12320;SDS011;6225;52.720;8.276;2023-08-20T13:02:24;5.28;;;2.45;;
12320;SDS011;6225;52.720;8.276;2023-08-20T13:05:09;4.38;;;2.55;;
12320;SDS011;6225;52.720;8.276;2023-08-20T13:07:54;4.25;;;2.35;;
12320;SDS011;6225;52.720;8.276;2023-08-20T13:10:39;5.70;;;2.42;;
12320;SDS011;6225;52.720;8.276;2023-08-20T13:13:24;7.55;;;2.50;;
12320;SDS011;6225;52.720;8.276;2023-08-20T13:16:09;4.45;;;2.72;;
12320;SDS011;6225;52.720;8.276;2023-08-20T13:18:53;4.65;;;2.38;;
12320;SDS011;6225;52.720;8.276;2023-08-20T13:21:38;4.63;;;2.70;;
12320;SDS011;6225;52.720;8.276;2023-08-20T13:24:22;6.97;;;2.85;;
12320;SDS011;6225;52.720;8.276;2023-08-20T13:27:06;6.93;;;2.28;;
12320;SDS011;6225;52.720;8.276;2023-08-20T13:29:50;5.57;;;2.58;;
12320;SDS011;6225;52.720;8.276;2023-08-20T13:32:37;4.38;;;2.47;;
12320;SDS011;6225;52.720;8.276;2023-08-20T13:35:21;4.47;;;2.65;;
12320;SDS011;6225;52.720;8.276;2023-08-20T13:38:06;8.93;;;2.55;;
12320;SDS011;6225;52.720;8.276;2023-08-20T13:40:50;4.47;;;2.22;;
12320;SDS011;6225;52.720;8.276;2023-08-20T13:43:35;5.05;;;2.72;;
12320;SDS011;6225;52.720;8.276;2023-08-20T13:46:19;4.50;;;2.53;;
12320;SDS011;6225;52.720;8.276;2023-08-20T13:49:03;5.95;;;2.50;;
12320;SDS011;6225;52.720;8.276;2023-08-20T13:51:47;5.28;;;2.47;;
12320;SDS011;6225;52.720;8.276;2023-08-20T13:54:31;4.60;;;2.17;;
12320;SDS011;6225;52.720;8.276;2023-08-20T13:57:16;8.55;;;2.63;;
12320;SDS011;6225;52.720;8.276;2023-08-20T14:00:00;11.73;;;2.53;;
12320;SDS011;6225;52.720;8.276;2023-08-20T14:02:44;6.15;;;2.55;;
12320;SDS011;6225;52.720;8.276;2023-08-20T14:05:28;5.45;;;2.40;;
12320;SDS011;6225;52.720;8.276;2023-08-20T14:08:13;4.13;;;2.20;;
12320;SDS011;6225;52.720;8.276;2023-08-20T14:10:57;3.75;;;2.05;;
12320;SDS011;6225;52.720;8.276;2023-08-20T14:13:41;5.43;;;2.30;;
12320;SDS011;6225;52.720;8.276;2023-08-20T14:16:26;5.00;;;2.28;;
12320;SDS011;6225;52.720;8.276;2023-08-20T14:19:11;4.90;;;2.20;;
12320;SDS011;6225;52.720;8.276;2023-08-20T14:21:55;6.15;;;1.90;;
12320;SDS011;6225;52.720;8.276;2023-08-20T14:24:39;3.92;;;2.10;;
12320;SDS011;6225;52.720;8.276;2023-08-20T14:27:23;4.55;;;2.10;;
12320;SDS011;6225;52.720;8.276;2023-08-20T14:30:07;4.93;;;2.10;;
12320;SDS011;6225;52.720;8.276;2023-08-20T14:32:52;6.85;;;1.80;;
12320;SDS011;6225;52.720;8.276;2023-08-20T14:35:36;5.13;;;1.73;;
12320;SDS011;6225;52.720;8.276;2023-08-20T14:38:20;5.28;;;1.63;;
12320;SDS011;6225;52.720;8.276;2023-08-20T14:41:04;5.30;;;1.80;;
12320;SDS011;6225;52.720;8.276;2023-08-20T14:43:49;3.53;;;1.77;;
12320;SDS011;6225;52.720;8.276;2023-08-20T14:46:33;3.65;;;1.92;;
12320;SDS011;6225;52.720;8.276;2023-08-20T14:49:17;4.47;;;1.70;;
12320;SDS011;6225;52.720;8.276;2023-08-20T14:52:02;2.33;;;1.30;;
12320;SDS011;6225;52.720;8.276;2023-08-20T14:54:48;3.63;;;1.67;;
12320;SDS011;6225;52.720;8.276;2023-08-20T14:57:32;3.53;;;2.00;;
12320;SDS011;6225;52.720;8.276;2023-08-20T15:00:16;4.43;;;1.60;;
12320;SDS011;6225;52.720;8.276;2023-08-20T15:03:01;5.22;;;1.67;;
12320;SDS011;6225;52.720;8.276;2023-08-20T15:05:47;3.42;;;1.77;;
12320;SDS011;6225;52.720;8.276;2023-08-20T15:08:32;4.10;;;1.60;;
12320;SDS011;6225;52.720;8.276;2023-08-20T15:11:16;2.42;;;1.35;;
12320;SDS011;6225;52.720;8.276;2023-08-20T15:14:00;4.40;;;1.70;;
12320;SDS011;6225;52.720;8.276;2023-08-20T15:16:45;3.28;;;1.58;;
12320;SDS011;6225;52.720;8.276;2023-08-20T15:19:29;2.90;;;1.40;;
12320;SDS011;6225;52.720;8.276;2023-08-20T15:22:13;6.32;;;2.20;;
12320;SDS011;6225;52.720;8.276;2023-08-20T15:24:57;3.05;;;1.40;;
12320;SDS011;6225;52.720;8.276;2023-08-20T15:27:41;4.18;;;1.40;;
12320;SDS011;6225;52.720;8.276;2023-08-20T15:30:27;4.45;;;1.50;;
12320;SDS011;6225;52.720;8.276;2023-08-20T15:33:11;3.38;;;1.60;;
12320;SDS011;6225;52.720;8.276;2023-08-20T15:35:57;3.40;;;1.42;;
12320;SDS011;6225;52.720;8.276;2023-08-20T15:38:43;3.95;;;1.50;;
12320;SDS011;6225;52.720;8.276;2023-08-20T15:41:27;7.55;;;1.70;;
12320;SDS011;6225;52.720;8.276;2023-08-20T15:44:11;3.00;;;1.38;;
12320;SDS011;6225;52.720;8.276;2023-08-20T15:46:55;2.85;;;1.48;;
12320;SDS011;6225;52.720;8.276;2023-08-20T15:49:39;2.05;;;1.00;;
12320;SDS011;6225;52.720;8.276;2023-08-20T15:52:23;3.70;;;1.60;;
12320;SDS011;6225;52.720;8.276;2023-08-20T15:55:07;3.55;;;1.30;;
12320;SDS011;6225;52.720;8.276;2023-08-20T15:57:53;2.80;;;1.00;;
12320;SDS011;6225;52.720;8.276;2023-08-20T16:00:38;2.60;;;1.08;;
12320;SDS011;6225;52.720;8.276;2023-08-20T16:03:22;2.53;;;0.98;;
12320;SDS011;6225;52.720;8.276;2023-08-20T16:06:06;3.03;;;1.10;;
12320;SDS011;6225;52.720;8.276;2023-08-20T16:08:50;4.07;;;1.33;;
12320;SDS011;6225;52.720;8.276;2023-08-20T16:11:34;2.67;;;1.05;;
12320;SDS011;6225;52.720;8.276;2023-08-20T16:14:18;2.50;;;0.90;;
12320;SDS011;6225;52.720;8.276;2023-08-20T16:17:03;2.58;;;0.95;;
12320;SDS011;6225;52.720;8.276;2023-08-20T16:19:47;1.33;;;0.73;;
12320;SDS011;6225;52.720;8.276;2023-08-20T16:22:31;3.50;;;1.08;;
12320;SDS011;6225;52.720;8.276;2023-08-20T16:25:15;0.90;;;0.70;;
12320;SDS011;6225;52.720;8.276;2023-08-20T16:27:59;2.72;;;0.85;;
12320;SDS011;6225;52.720;8.276;2023-08-20T16:30:43;2.20;;;0.80;;
12320;SDS011;6225;52.720;8.276;2023-08-20T16:33:29;0.70;;;0.65;;
12320;SDS011;6225;52.720;8.276;2023-08-20T16:36:13;4.22;;;0.65;;
12320;SDS011;6225;52.720;8.276;2023-08-20T16:38:57;1.60;;;0.82;;
12320;SDS011;6225;52.720;8.276;2023-08-20T16:41:42;4.13;;;0.75;;
12320;SDS011;6225;52.720;8.276;2023-08-20T16:44:26;2.38;;;0.80;;
12320;SDS011;6225;52.720;8.276;2023-08-20T16:47:10;4.80;;;0.73;;
12320;SDS011;6225;52.720;8.276;2023-08-20T16:49:54;3.30;;;0.80;;
12320;SDS011;6225;52.720;8.276;2023-08-20T16:52:38;3.40;;;0.75;;